ADDS METAR Data INFO
IDs: Format: Raw Decoded Include TAF

Data at: 2054 UTC 26 May 2017

KT20 262035Z AUTO 17008KT 10SM SCT035 OVC048 32/25 A2983 RMK AO2 T03200245
KT20 262015Z AUTO 20007KT 10SM SCT037 OVC048 32/24 A2984 RMK AO2 T03230243
KT20 261955Z AUTO 17011G15KT 10SM BKN037 BKN048 33/25 A2984 RMK AO2 T03300248
KT20 261935Z AUTO 18009KT 10SM BKN035 OVC046 32/24 A2984 RMK AO2 T03220242
KT20 261915Z AUTO 17010G18KT 10SM SCT035 OVC044 33/25 A2984 RMK AO2 T03280245
KT20 261855Z AUTO 18011G17KT 10SM BKN037 OVC044 33/25 A2984 RMK AO2 T03320245
KT20 261815Z AUTO 18010G18KT 10SM OVC035 31/24 A2986 RMK AO2 T03140242
KT20 261755Z AUTO 19010G16KT 10SM BKN032 OVC038 32/24 A2986 RMK AO2 T03160241 10319 20247
KT20 261735Z AUTO 17012G19KT 10SM OVC032 31/24 A2987 RMK AO2 T03090241
KT20 261715Z AUTO 17011G20KT 10SM BKN028 BKN034 32/25 A2986 RMK AO2 T03150248
KT20 261655Z AUTO 17013G18KT 10SM BKN025 OVC032 31/24 A2987 RMK AO2 T03060242
KT20 261635Z AUTO 19013G19KT 10SM BKN023 OVC028 30/25 A2986 RMK AO2 T03010245
KT20 261615Z AUTO 16013G20KT 10SM OVC019 29/25 A2987 RMK AO2 T02930246
KT20 261555Z AUTO 17011G18KT 10SM OVC015 29/25 A2987 RMK AO2 T02850249
KT20 261535Z AUTO 17010KT 10SM BKN015 OVC026 28/25 A2987 RMK AO2 T02790251
KT20 261515Z AUTO 15008KT 10SM BKN015 OVC026 27/25 A2987 RMK AO2 T02730250
KT20 261455Z AUTO 16009KT 10SM OVC015 27/25 A2987 RMK AO2 T02720250
KT20 261435Z AUTO 16008KT 10SM BKN013 BKN020 OVC025 27/25 A2987 RMK AO2 T02660249
KT20 261415Z AUTO 18005KT 10SM BKN013 BKN018 OVC025 26/25 A2987 RMK AO2 T02570250
KT20 261355Z AUTO 17004KT 10SM SCT011 OVC021 26/25 A2987 RMK AO2 T02550247
KT20 261335Z AUTO 18004KT 7SM BKN021 OVC030 25/25 A2986 RMK AO2 T02520249
KT20 261315Z AUTO 17005KT 7SM SCT014 BKN022 OVC032 25/25 A2985 RMK AO2 T02500248
KT20 261255Z AUTO 18003KT 7SM OVC016 25/25 A2985 RMK AO2 T02480247
KT20 261235Z AUTO 00000KT 7SM OVC016 25/25 A2985 RMK AO2 T02470246
KT20 261215Z AUTO 21004KT 5SM RA BKN014 OVC020 25/24 A2984 RMK AO2 T02520242
KT20 261155Z AUTO 19004KT 10SM BKN018 OVC024 25/24 A2982 RMK AO2 T02530240 10260 20253
KT20 261135Z AUTO 18006KT 10SM OVC023 25/24 A2982 RMK AO2 T02540240
KT20 261115Z AUTO 19007KT 10SM OVC023 26/24 A2982 RMK AO2 T02560237
KT20 261055Z AUTO 18007KT 10SM OVC022 26/24 A2980 RMK AO2 T02570236
KT20 261035Z AUTO 18008KT 10SM OVC022 26/24 A2980 RMK AO2 T02570235
KT20 261015Z AUTO 18009G17KT 10SM OVC022 26/24 A2979 RMK AO2 T02570235
KT20 260955Z AUTO 17007KT 10SM OVC022 26/24 A2979 RMK AO2 T02570235
KT20 260935Z AUTO 17008G15KT 10SM OVC022 26/23 A2979 RMK AO2 T02580233
KT20 260915Z AUTO 18010G14KT 10SM OVC022 26/23 A2979 RMK AO2 T02590231
KT20 260855Z AUTO 18008KT 10SM OVC022 26/23 A2978 RMK AO2 T02570231
KT20 260835Z AUTO 18009KT 10SM OVC022 26/23 A2978 RMK AO2 T02580231
KT20 260815Z AUTO 19009G14KT 10SM OVC020 26/23 A2978 RMK AO2 T02570231
KT20 260755Z AUTO 18009KT 10SM OVC020 26/23 A2978 RMK AO2 T02560232
KT20 260735Z AUTO 19007KT 10SM OVC020 26/23 A2978 RMK AO2 T02550232
KT20 260715Z AUTO 19010G15KT 10SM OVC020 26/23 A2978 RMK AO2 T02550233
KT20 260655Z AUTO 19008G14KT 10SM OVC020 26/23 A2978 RMK AO2 T02570233
KT20 260635Z AUTO 19010G17KT 10SM OVC018 26/23 A2978 RMK AO2 T02570231
KT20 260615Z AUTO 18012G19KT 10SM OVC016 26/24 A2978 RMK AO2 T02570235
KT20 260555Z AUTO 18009G14KT 10SM OVC014 26/24 A2979 RMK AO2 T02560235 10303 20245 403370165
KT20 260535Z AUTO 18010G16KT 10SM OVC014 26/23 A2978 RMK AO2 LTG DSNT N T02550234
KT20 260515Z AUTO 18010G19KT 10SM OVC014 26/23 A2978 RMK AO2 T02550233
KT20 260455Z AUTO 18013G19KT 10SM OVC014 25/23 A2977 RMK AO2 T02530232
KT20 260435Z AUTO 18016G20KT 10SM OVC014 25/23 A2977 RMK AO2 T02510231
KT20 260415Z AUTO 17011G20KT 10SM OVC014 25/23 A2976 RMK AO2 T02500230
KT20 260355Z AUTO 16011G19KT 10SM OVC014 25/23 A2976 RMK AO2 T02500228
KT20 260335Z AUTO 16015G22KT 10SM BKN016 25/23 A2976 RMK AO2 T02460226
KT20 260315Z AUTO 16011G16KT 10SM CLR 25/23 A2975 RMK AO2 T02470225
KT20 260255Z AUTO 16012G17KT 10SM CLR 25/22 A2974 RMK AO2 T02510223
KT20 260235Z AUTO 15011KT 10SM CLR 26/22 A2974 RMK AO2 T02550222
KT20 260215Z AUTO 15011G15KT 10SM CLR 26/22 A2974 RMK AO2 T02600220
KT20 260155Z AUTO 16009KT 10SM CLR 26/22 A2974 RMK AO2 T02620216
KT20 260135Z AUTO 17007KT 10SM CLR 27/22 A2973 RMK AO2 T02700215
KT20 260115Z AUTO 16009G17KT 10SM CLR 28/21 A2972 RMK AO2 T02760213
KT20 260055Z AUTO 17009G17KT 10SM CLR 28/22 A2972 RMK AO2 T02830215
KT20 260035Z AUTO 16010G18KT 10SM CLR 29/22 A2971 RMK AO2 T02900215
KT20 260015Z AUTO 15012G18KT 10SM CLR 30/22 A2971 RMK AO2 T02960215
KT20 252355Z AUTO 17012G19KT 10SM CLR 30/21 A2970 RMK AO2 T03030214 10337 20303
KT20 252335Z AUTO 18012G18KT 10SM CLR 31/21 A2970 RMK AO2 T03090213
KT20 252315Z AUTO 15013G20KT 10SM CLR 32/21 A2970 RMK AO2 T03150212
KT20 252255Z AUTO 17016G20KT 10SM CLR 32/21 A2970 RMK AO2 T03200205
KT20 252235Z AUTO 16013G21KT 10SM CLR 32/21 A2971 RMK AO2 T03220209
KT20 252215Z AUTO 16013G19KT 10SM CLR 33/21 A2971 RMK AO2 T03260209
KT20 252155Z AUTO 16014G19KT 10SM CLR 33/21 A2972 RMK AO2 T03270209
KT20 252135Z AUTO 16013G19KT 10SM CLR 33/21 A2972 RMK AO2 T03330209
KT20 252115Z AUTO 17012G19KT 10SM CLR 33/20 A2972 RMK AO2 T03320203
KT20 252055Z AUTO 18012G19KT 10SM CLR 34/20 A2973 RMK AO2 T03350204
KT20 252035Z AUTO 18014G19KT 10SM CLR 33/20 A2973 RMK AO2 T03340198
KT20 252015Z AUTO 18014G18KT 10SM CLR 33/19 A2974 RMK AO2 T03280192
KT20 251955Z AUTO 19011G19KT 10SM CLR 33/19 A2975 RMK AO2 T03330193
KT20 251935Z AUTO 20014G20KT 10SM CLR 33/19 A2975 RMK AO2 T03280187
KT20 251915Z AUTO 19016G20KT 10SM CLR 33/18 A2976 RMK AO2 T03290178
KT20 251855Z AUTO 17015G22KT 10SM CLR 32/17 A2976 RMK AO2 T03220167
KT20 251835Z AUTO 18014G23KT 10SM CLR 32/16 A2977 RMK AO2 T03190163
KT20 251815Z AUTO 19016G24KT 10SM CLR 32/16 A2977 RMK AO2 T03170162
KT20 251755Z AUTO 19015G23KT 10SM CLR 31/16 A2977 RMK AO2 T03140160 10314 20171
KT20 251735Z AUTO 19016G23KT 10SM CLR 31/15 A2978 RMK AO2 T03090154
KT20 251715Z AUTO 18014G23KT 10SM CLR 31/16 A2979 RMK AO2 T03050156
KT20 251655Z AUTO 20017G26KT 10SM CLR 30/15 A2979 RMK AO2 T03010145
KT20 251635Z AUTO 17017G21KT 10SM CLR 29/16 A2980 RMK AO2 T02940155
KT20 251615Z AUTO 19018G24KT 10SM CLR 29/16 A2980 RMK AO2 T02870162
KT20 251555Z AUTO 21014G20KT 10SM CLR 28/17 A2980 RMK AO2 T02830167
KT20 251535Z AUTO 18014G26KT 10SM CLR 27/17 A2981 RMK AO2 T02740168
KT20 251515Z AUTO 19011G20KT 10SM CLR 27/18 A2982 RMK AO2 T02650183
KT20 251455Z AUTO 19013G21KT 10SM CLR 26/18 A2982 RMK AO2 T02640183
KT20 251435Z AUTO 20011G15KT 10SM CLR 26/19 A2982 RMK AO2 T02560189
KT20 251415Z AUTO 20011G18KT 10SM CLR 24/18 A2981 RMK AO2 T02410184
KT20 251355Z AUTO 20009KT 10SM CLR 23/18 A2980 RMK AO2 T02320181
KT20 251335Z AUTO 21008KT 10SM CLR 22/17 A2981 RMK AO2 T02150174
KT20 251315Z AUTO 20006KT 10SM CLR 20/17 A2980 RMK AO2 T02020168
KT20 251255Z AUTO 21004KT 10SM CLR 19/17 A2980 RMK AO2 T01900166
KT20 251235Z AUTO 22003KT 10SM CLR 18/16 A2980 RMK AO2 T01790162
KT20 251215Z AUTO 00000KT 10SM CLR 17/16 A2980 RMK AO2 T01710160
KT20 251155Z AUTO 21004KT 10SM CLR 17/16 A2979 RMK AO2 T01700162 10180 20165
KT20 251135Z AUTO 19003KT 10SM CLR 17/16 A2978 RMK AO2 T01660156
KT20 251115Z AUTO 22003KT 10SM CLR 17/16 A2977 RMK AO2 T01720157
KT20 251055Z AUTO 20004KT 10SM CLR 18/16 A2977 RMK AO2 T01750156
KT20 251035Z AUTO 19008KT 10SM CLR 18/16 A2976 RMK AO2 T01770155
KT20 251015Z AUTO 19007KT 10SM CLR 18/15 A2975 RMK AO2 T01750153
KT20 250955Z AUTO 19007KT 10SM CLR 17/15 A2976 RMK AO2 T01710151
KT20 250935Z AUTO 19005KT 10SM CLR 17/15 A2976 RMK AO2 T01700145
KT20 250915Z AUTO 19005KT 10SM CLR 17/14 A2975 RMK AO2 T01700143
KT20 250855Z AUTO 19005KT 10SM CLR 17/14 A2976 RMK AO2 T01720143


Page loaded:  20:54 UTC  |   01:54 PM Pacific  |   02:54 PM Mountain  |   03:54 PM Central  |   04:54 PM Eastern

 

ADVISORIES

FORECASTS

FORECASTS

OBSERVATIONS

USER TOOLS

ABOUT US